Time;durP1;ratioP1;P1;durP2;ratioP2;P2;SDS_P1;SDS_P2;PMS_P1;PMS_P2;Temp;Humidity;BMP_temperature;BMP_pressure;BME280_temperature;BME280_humidity;BME280_pressure;Samples;Min_cycle;Max_cycle;Signal;HPM_P1;HPM_P2
2023/03/03 00:00:02;;;;;;;;;;;26.80;99.90;;;;;;5044161;28;20437;-67
2023/03/03 00:02:28;;;;;;;;;;;27.00;99.90;;;;;;5045651;28;20354;-64
2023/03/03 00:04:55;;;;;;;;;;;27.00;99.90;;;;;;5054272;28;20436;-68
2023/03/03 00:07:22;;;;;;;;;;;27.00;99.90;;;;;;5044444;28;19919;-70
2023/03/03 00:09:48;;;;;;;;;;;27.00;99.90;;;;;;5043792;28;19920;-67
2023/03/03 00:12:25;;;;;;;;;;;27.00;99.90;;;;;;5044207;28;19913;-68
2023/03/03 00:14:52;;;;;;;;;;;27.20;99.90;;;;;;5033869;28;20293;-67
2023/03/03 00:17:23;;;;;;;;;;;27.20;98.80;;;;;;5043957;28;20015;-70
2023/03/03 00:19:50;;;;;;;;;;;27.00;99.40;;;;;;5044456;28;19923;-69
2023/03/03 00:22:29;;;;;;;;;;;27.10;99.10;;;;;;5044684;28;19959;-70
2023/03/03 00:25:19;;;;;;;;;;;27.20;99.00;;;;;;5025093;28;19980;-65
2023/03/03 00:27:46;;;;;;;;;;;27.20;99.10;;;;;;5043730;28;19959;-68
2023/03/03 00:30:26;;;;;;;;;;;27.10;99.30;;;;;;5043997;28;19917;-67
2023/03/03 00:32:54;;;;;;;;;;;27.20;99.20;;;;;;5048456;28;19962;-69
2023/03/03 00:35:21;;;;;;;;;;;27.60;99.40;;;;;;5046606;28;19913;-68
2023/03/03 00:37:47;;;;;;;;;;;27.50;99.00;;;;;;5044656;28;19927;-70
2023/03/03 00:40:14;;;;;;;;;;;27.80;98.90;;;;;;5044541;28;20011;-68
2023/03/03 00:42:42;;;;;;;;;;;28.00;97.90;;;;;;5043370;28;19920;-71
2023/03/03 00:45:27;;;;;;;;;;;28.20;97.70;;;;;;5043366;28;20202;-70
2023/03/03 00:47:54;;;;;;;;;;;28.10;97.30;;;;;;5043608;28;20243;-71
2023/03/03 00:50:32;;;;;;;;;;;27.90;97.10;;;;;;5044585;28;20250;-70
2023/03/03 00:53:02;;;;;;;;;;;27.60;97.40;;;;;;5043147;28;20365;-70
2023/03/03 00:55:29;;;;;;;;;;;27.40;97.80;;;;;;5061009;28;20350;-67
2023/03/03 00:57:55;;;;;;;;;;;27.30;98.40;;;;;;5048159;28;19908;-70
2023/03/03 01:00:22;;;;;;;;;;;27.20;99.00;;;;;;5042425;28;19913;-67
2023/03/03 01:02:49;;;;;;;;;;;27.10;98.10;;;;;;5042979;28;19960;-67
2023/03/03 01:05:16;;;;;;;;;;;26.90;97.70;;;;;;5043485;28;19917;-67
2023/03/03 01:07:43;;;;;;;;;;;26.80;97.70;;;;;;5043537;28;20012;-67
2023/03/03 01:10:10;;;;;;;;;;;26.70;98.00;;;;;;5042461;28;19913;-66
2023/03/03 01:12:37;;;;;;;;;;;26.60;98.20;;;;;;5043047;28;19913;-70
2023/03/03 01:15:07;;;;;;;;;;;26.50;98.50;;;;;;5042503;28;19908;-66
2023/03/03 01:17:34;;;;;;;;;;;26.40;98.90;;;;;;5043852;28;19909;-65
2023/03/03 01:20:01;;;;;;;;;;;26.30;98.90;;;;;;5042742;28;20292;-65
2023/03/03 01:22:28;;;;;;;;;;;26.10;99.20;;;;;;5042768;28;19955;-64
2023/03/03 01:24:54;;;;;;;;;;;26.00;99.90;;;;;;5039160;28;20017;-66
2023/03/03 01:27:21;;;;;;;;;;;25.90;99.90;;;;;;5042598;28;19919;-71
2023/03/03 01:29:48;;;;;;;;;;;25.80;99.90;;;;;;5043795;28;19951;-71
2023/03/03 01:32:14;;;;;;;;;;;25.60;99.90;;;;;;5043277;28;19974;-67
2023/03/03 01:34:41;;;;;;;;;;;25.50;99.90;;;;;;5042616;28;19909;-66
2023/03/03 01:37:07;;;;;;;;;;;25.30;99.90;;;;;;5042481;28;19913;-71
2023/03/03 01:39:34;;;;;;;;;;;25.20;99.90;;;;;;5043681;28;19924;-73
2023/03/03 01:42:02;;;;;;;;;;;25.20;99.90;;;;;;5042784;28;20389;-71
2023/03/03 01:44:28;;;;;;;;;;;25.00;99.90;;;;;;5041389;28;19917;-70
2023/03/03 01:46:55;;;;;;;;;;;24.90;99.90;;;;;;5043417;28;19920;-72
2023/03/03 01:49:24;;;;;;;;;;;25.00;99.90;;;;;;5043807;28;19959;-76
2023/03/03 01:51:53;;;;;;;;;;;24.90;99.90;;;;;;5043408;28;19917;-66
2023/03/03 01:54:23;;;;;;;;;;;24.80;99.90;;;;;;5041852;28;19917;-72
2023/03/03 01:56:50;;;;;;;;;;;24.80;99.90;;;;;;5043397;28;19956;-75
2023/03/03 01:59:19;;;;;;;;;;;24.70;99.90;;;;;;5043073;28;19948;-78
2023/03/03 02:01:46;;;;;;;;;;;24.50;99.90;;;;;;5043320;28;19909;-72
2023/03/03 02:04:14;;;;;;;;;;;24.40;99.90;;;;;;5042157;28;19927;-69
2023/03/03 02:06:43;;;;;;;;;;;24.20;99.90;;;;;;5043287;28;20285;-70
2023/03/03 02:09:22;;;;;;;;;;;24.10;99.90;;;;;;5043090;28;20282;-69
2023/03/03 02:11:50;;;;;;;;;;;24.00;99.90;;;;;;5041389;28;19919;-68
2023/03/03 02:14:17;;;;;;;;;;;24.00;99.90;;;;;;5039611;28;19999;-65
2023/03/03 02:16:43;;;;;;;;;;;23.90;99.90;;;;;;5041865;28;19912;-65
2023/03/03 02:19:19;;;;;;;;;;;23.90;99.90;;;;;;5041728;28;20381;-65
2023/03/03 02:21:45;;;;;;;;;;;24.00;99.90;;;;;;5043177;28;19912;-65
2023/03/03 02:24:21;;;;;;;;;;;24.10;99.90;;;;;;5041784;28;19923;-67
2023/03/03 02:26:48;;;;;;;;;;;24.30;99.90;;;;;;5041812;28;19916;-69
2023/03/03 02:29:14;;;;;;;;;;;24.30;99.90;;;;;;5041617;28;20420;-67
2023/03/03 02:31:41;;;;;;;;;;;24.50;99.90;;;;;;5042611;28;20110;-66
2023/03/03 02:34:08;;;;;;;;;;;24.60;99.90;;;;;;5041045;28;19952;-68
2023/03/03 02:36:36;;;;;;;;;;;24.70;99.90;;;;;;5042952;28;19992;-66
2023/03/03 02:39:22;;;;;;;;;;;24.80;99.90;;;;;;5042793;28;19928;-67
2023/03/03 02:41:50;;;;;;;;;;;24.90;99.90;;;;;;5042897;28;20098;-67
2023/03/03 02:44:18;;;;;;;;;;;25.00;99.90;;;;;;5041860;28;19963;-68
2023/03/03 02:46:46;;;;;;;;;;;25.20;99.90;;;;;;5042902;28;19973;-70
2023/03/03 02:49:13;;;;;;;;;;;25.30;99.90;;;;;;5042145;28;19909;-66
2023/03/03 02:51:40;;;;;;;;;;;25.50;99.90;;;;;;5042009;28;20061;-70
2023/03/03 02:54:07;;;;;;;;;;;25.70;99.90;;;;;;5042123;28;19934;-67
2023/03/03 02:56:34;;;;;;;;;;;25.80;99.90;;;;;;5037707;28;19948;-68
2023/03/03 02:59:01;;;;;;;;;;;25.90;99.90;;;;;;5041794;28;19917;-67
2023/03/03 03:01:30;;;;;;;;;;;26.00;99.90;;;;;;5041635;28;20273;-68
2023/03/03 03:03:57;;;;;;;;;;;26.10;99.90;;;;;;5042109;28;19920;-66
2023/03/03 03:06:24;;;;;;;;;;;26.10;99.90;;;;;;5045096;28;19913;-67
2023/03/03 03:08:51;;;;;;;;;;;26.20;99.90;;;;;;5046064;28;19991;-73
2023/03/03 03:11:17;;;;;;;;;;;26.40;99.90;;;;;;5045411;28;19913;-66
2023/03/03 03:13:44;;;;;;;;;;;26.30;99.90;;;;;;5044707;28;19908;-69
2023/03/03 03:16:10;;;;;;;;;;;26.40;99.90;;;;;;5045333;28;20273;-71
2023/03/03 03:18:37;;;;;;;;;;;26.30;99.90;;;;;;5045861;28;19908;-66
2023/03/03 03:21:08;;;;;;;;;;;26.10;99.90;;;;;;5045489;28;19909;-71
2023/03/03 03:23:35;;;;;;;;;;;26.00;99.90;;;;;;5046090;28;19917;-68
2023/03/03 03:26:01;;;;;;;;;;;25.90;99.90;;;;;;5045221;28;20261;-67
2023/03/03 03:28:28;;;;;;;;;;;26.00;99.90;;;;;;5045685;28;19913;-67
2023/03/03 03:30:55;;;;;;;;;;;26.00;99.90;;;;;;5045741;28;19995;-69
2023/03/03 03:33:22;;;;;;;;;;;25.80;99.90;;;;;;5045017;28;19999;-68
2023/03/03 03:35:49;;;;;;;;;;;25.80;99.90;;;;;;5045219;28;19935;-68
2023/03/03 03:38:16;;;;;;;;;;;25.80;99.90;;;;;;5044754;28;19924;-69
2023/03/03 03:40:42;;;;;;;;;;;25.70;99.90;;;;;;5046010;28;19966;-66
2023/03/03 03:43:09;;;;;;;;;;;25.60;99.90;;;;;;5045383;28;19954;-69
2023/03/03 03:45:36;;;;;;;;;;;25.50;99.90;;;;;;5044348;28;19917;-68
2023/03/03 03:48:02;;;;;;;;;;;25.40;99.90;;;;;;5044636;28;20266;-68
2023/03/03 03:50:29;;;;;;;;;;;25.30;99.90;;;;;;5044126;28;19909;-70
2023/03/03 03:52:56;;;;;;;;;;;25.60;99.90;;;;;;5045540;28;20317;-66
2023/03/03 03:55:22;;;;;;;;;;;26.80;99.90;;;;;;5043543;28;19909;-70
2023/03/03 03:57:49;;;;;;;;;;;27.60;99.90;;;;;;5045180;28;19916;-66
2023/03/03 04:00:16;;;;;;;;;;;28.20;99.90;;;;;;5044507;28;19913;-67
2023/03/03 04:02:43;;;;;;;;;;;28.40;99.90;;;;;;5044571;28;19920;-73
2023/03/03 04:05:09;;;;;;;;;;;28.90;99.90;;;;;;5043087;28;20324;-67
2023/03/03 04:07:36;;;;;;;;;;;28.90;99.10;;;;;;5044206;28;19927;-72
2023/03/03 04:10:03;;;;;;;;;;;28.90;99.00;;;;;;5044697;28;20369;-68
2023/03/03 04:12:34;;;;;;;;;;;29.30;98.70;;;;;;5044528;28;19928;-69
2023/03/03 04:15:01;;;;;;;;;;;29.40;98.30;;;;;;5044031;28;19919;-67
2023/03/03 04:17:28;;;;;;;;;;;29.90;97.40;;;;;;5035030;28;19913;-65
2023/03/03 04:19:54;;;;;;;;;;;30.70;96.10;;;;;;5044695;28;20366;-67
2023/03/03 04:22:22;;;;;;;;;;;31.00;95.60;;;;;;5043256;28;19916;-64
2023/03/03 04:24:48;;;;;;;;;;;31.00;95.30;;;;;;5043121;28;19920;-65
2023/03/03 04:27:15;;;;;;;;;;;31.50;94.80;;;;;;5043083;28;19916;-66
2023/03/03 04:29:42;;;;;;;;;;;32.20;94.40;;;;;;5041554;28;20220;-69
2023/03/03 04:32:09;;;;;;;;;;;32.90;92.60;;;;;;5038262;28;19913;-67
2023/03/03 04:34:35;;;;;;;;;;;33.80;91.60;;;;;;5043357;28;19916;-66
2023/03/03 04:37:02;;;;;;;;;;;34.70;90.50;;;;;;5043995;28;19962;-68
2023/03/03 04:39:29;;;;;;;;;;;35.30;88.50;;;;;;5042453;28;19921;-69
2023/03/03 04:41:55;;;;;;;;;;;35.10;88.20;;;;;;5044543;28;20258;-70
2023/03/03 04:44:22;;;;;;;;;;;34.40;88.30;;;;;;5041426;28;19976;-69
2023/03/03 04:46:48;;;;;;;;;;;33.50;90.30;;;;;;5043079;28;20012;-67
2023/03/03 04:49:16;;;;;;;;;;;32.60;91.30;;;;;;5043057;28;19935;-71
2023/03/03 04:51:43;;;;;;;;;;;31.60;92.20;;;;;;5043870;28;19996;-72
2023/03/03 04:54:10;;;;;;;;;;;30.70;93.10;;;;;;5042817;28;19951;-71
2023/03/03 04:56:36;;;;;;;;;;;29.80;94.30;;;;;;5041958;28;19912;-70
2023/03/03 04:59:03;;;;;;;;;;;29.00;95.60;;;;;;5043401;28;20635;-72
2023/03/03 05:01:29;;;;;;;;;;;28.40;96.80;;;;;;5042086;28;19919;-73
2023/03/03 05:03:57;;;;;;;;;;;28.00;97.40;;;;;;5043689;28;19918;-67
2023/03/03 05:06:24;;;;;;;;;;;27.70;97.80;;;;;;5043631;28;19927;-73
2023/03/03 05:08:50;;;;;;;;;;;27.30;98.60;;;;;;5043569;28;19909;-71
2023/03/03 05:11:17;;;;;;;;;;;27.00;99.50;;;;;;5042889;28;19913;-72
2023/03/03 05:13:44;;;;;;;;;;;26.80;99.60;;;;;;5042149;28;19970;-72
2023/03/03 05:16:11;;;;;;;;;;;26.70;99.90;;;;;;5042918;28;19956;-68
2023/03/03 05:18:41;;;;;;;;;;;26.50;99.90;;;;;;5042513;28;20000;-66
2023/03/03 05:21:07;;;;;;;;;;;26.50;99.90;;;;;;5043426;28;19913;-70
2023/03/03 05:23:34;;;;;;;;;;;26.30;99.90;;;;;;5042440;28;19913;-71
2023/03/03 05:26:01;;;;;;;;;;;26.20;99.90;;;;;;5043321;28;19916;-68
2023/03/03 05:28:27;;;;;;;;;;;26.20;99.90;;;;;;5042541;28;19955;-70
2023/03/03 05:30:54;;;;;;;;;;;26.20;99.90;;;;;;5042749;28;19908;-67
2023/03/03 05:33:21;;;;;;;;;;;26.10;99.90;;;;;;5042763;28;19913;-69
2023/03/03 05:35:47;;;;;;;;;;;26.10;99.90;;;;;;5041599;28;19916;-69
2023/03/03 05:38:14;;;;;;;;;;;26.10;99.90;;;;;;5028029;28;19925;-69
2023/03/03 05:40:40;;;;;;;;;;;26.20;99.90;;;;;;5041887;28;19919;-68
2023/03/03 05:43:07;;;;;;;;;;;26.40;99.90;;;;;;5042698;28;19954;-67
2023/03/03 05:45:34;;;;;;;;;;;26.60;99.90;;;;;;5042112;28;19924;-71
2023/03/03 05:48:02;;;;;;;;;;;26.80;99.90;;;;;;5042500;28;19921;-69
2023/03/03 05:50:28;;;;;;;;;;;27.20;99.90;;;;;;5042357;28;19909;-68
2023/03/03 05:52:55;;;;;;;;;;;27.80;99.90;;;;;;5041978;28;19920;-66
2023/03/03 05:55:21;;;;;;;;;;;28.70;98.90;;;;;;5042766;28;19995;-67
2023/03/03 05:57:48;;;;;;;;;;;29.80;97.40;;;;;;5042490;28;20377;-67
2023/03/03 06:00:15;;;;;;;;;;;31.00;95.40;;;;;;5038307;28;19921;-66
2023/03/03 06:02:42;;;;;;;;;;;32.30;93.60;;;;;;5041314;28;19978;-68
2023/03/03 06:05:10;;;;;;;;;;;32.70;92.60;;;;;;5043357;28;19917;-67
2023/03/03 06:07:37;;;;;;;;;;;32.90;91.80;;;;;;5043347;28;20280;-71
2023/03/03 06:10:04;;;;;;;;;;;32.70;92.10;;;;;;5043153;28;19912;-71
2023/03/03 06:12:31;;;;;;;;;;;33.20;91.80;;;;;;5043005;28;19909;-70
2023/03/03 06:14:57;;;;;;;;;;;33.80;90.50;;;;;;5042494;28;20345;-66
2023/03/03 06:17:24;;;;;;;;;;;33.40;90.50;;;;;;5043496;28;19905;-67
2023/03/03 06:19:50;;;;;;;;;;;33.00;91.10;;;;;;5042523;28;19978;-64
2023/03/03 06:22:17;;;;;;;;;;;32.60;91.30;;;;;;5043232;28;19909;-63
2023/03/03 06:24:44;;;;;;;;;;;32.40;91.40;;;;;;5042407;28;19928;-68
2023/03/03 06:27:10;;;;;;;;;;;32.00;91.80;;;;;;5043258;28;19948;-69
2023/03/03 06:29:37;;;;;;;;;;;31.60;92.10;;;;;;5043346;28;20065;-69
2023/03/03 06:32:04;;;;;;;;;;;31.10;92.80;;;;;;5042663;28;19942;-71
2023/03/03 06:34:30;;;;;;;;;;;31.20;93.30;;;;;;5042628;28;19950;-71
2023/03/03 06:36:57;;;;;;;;;;;31.70;92.70;;;;;;5042629;28;20409;-69
2023/03/03 06:39:24;;;;;;;;;;;32.50;91.50;;;;;;5043017;28;19928;-66
2023/03/03 06:41:50;;;;;;;;;;;32.70;90.90;;;;;;5045209;28;19913;-70
2023/03/03 06:44:17;;;;;;;;;;;32.40;91.20;;;;;;5045881;28;19924;-69
2023/03/03 06:46:44;;;;;;;;;;;32.00;92.10;;;;;;5046009;28;19999;-68
2023/03/03 06:49:10;;;;;;;;;;;31.80;91.90;;;;;;5046262;28;19917;-68
2023/03/03 06:51:38;;;;;;;;;;;31.50;92.60;;;;;;5046180;28;19917;-68
2023/03/03 06:54:11;;;;;;;;;;;31.00;93.00;;;;;;5045599;28;19951;-70
2023/03/03 06:56:38;;;;;;;;;;;30.50;93.90;;;;;;5045012;28;20529;-69
2023/03/03 06:59:15;;;;;;;;;;;30.10;94.40;;;;;;5045585;28;19959;-69
2023/03/03 07:01:42;;;;;;;;;;;29.50;95.50;;;;;;5046686;28;19999;-69
2023/03/03 07:04:21;;;;;;;;;;;29.10;95.70;;;;;;5045294;28;20058;-70
2023/03/03 07:06:48;;;;;;;;;;;28.50;96.00;;;;;;5045556;28;19909;-69
2023/03/03 07:09:19;;;;;;;;;;;28.20;96.70;;;;;;5046410;28;19913;-68
2023/03/03 07:11:46;;;;;;;;;;;27.90;97.50;;;;;;5045641;28;19916;-71
2023/03/03 07:14:15;;;;;;;;;;;27.60;97.40;;;;;;5045760;28;19912;-68
2023/03/03 07:16:42;;;;;;;;;;;27.30;98.00;;;;;;5044962;28;20003;-70
2023/03/03 07:19:23;;;;;;;;;;;27.00;98.80;;;;;;5044161;28;19999;-66
2023/03/03 07:21:51;;;;;;;;;;;26.80;99.50;;;;;;5045240;28;19959;-66
2023/03/03 07:24:18;;;;;;;;;;;26.60;99.90;;;;;;5045419;28;19924;-64
2023/03/03 07:26:45;;;;;;;;;;;26.30;99.90;;;;;;5044835;28;20281;-69
2023/03/03 07:29:17;;;;;;;;;;;26.10;99.90;;;;;;5044918;28;20003;-65
2023/03/03 07:31:47;;;;;;;;;;;25.80;99.90;;;;;;5039440;28;19912;-65
2023/03/03 07:34:19;;;;;;;;;;;25.60;99.90;;;;;;5038642;28;20401;-69
2023/03/03 07:36:48;;;;;;;;;;;25.40;99.90;;;;;;5043576;28;19928;-68
2023/03/03 07:39:31;;;;;;;;;;;25.40;99.90;;;;;;5043150;28;19921;-69
2023/03/03 07:42:21;;;;;;;;;;;25.40;99.90;;;;;;5043082;28;20386;-71
2023/03/03 07:44:49;;;;;;;;;;;25.30;99.90;;;;;;5041792;28;20028;-65
2023/03/03 07:47:22;;;;;;;;;;;25.30;99.90;;;;;;5043726;28;19995;-65
2023/03/03 07:49:50;;;;;;;;;;;25.20;99.90;;;;;;5043932;28;20515;-65
2023/03/03 07:52:23;;;;;;;;;;;25.10;99.90;;;;;;5043038;28;19940;-68
2023/03/03 07:54:50;;;;;;;;;;;25.10;99.90;;;;;;5042955;28;19917;-64
2023/03/03 07:57:17;;;;;;;;;;;24.90;99.90;;;;;;5043697;28;19913;-66
2023/03/03 07:59:48;;;;;;;;;;;24.90;99.90;;;;;;5043615;28;20480;-65
2023/03/03 08:02:35;;;;;;;;;;;24.90;99.90;;;;;;5043119;28;19909;-67
2023/03/03 08:05:20;;;;;;;;;;;24.90;99.90;;;;;;5074581;28;19931;-65
2023/03/03 08:07:49;;;;;;;;;;;24.80;99.90;;;;;;5043404;28;19967;-67
2023/03/03 08:10:31;;;;;;;;;;;24.70;99.90;;;;;;5041407;28;19913;-66
2023/03/03 08:12:59;;;;;;;;;;;24.50;99.90;;;;;;5038525;28;20007;-67
2023/03/03 08:15:30;;;;;;;;;;;24.50;99.90;;;;;;5043609;28;19913;-66
2023/03/03 08:17:57;;;;;;;;;;;24.40;99.90;;;;;;5043484;28;20365;-64
2023/03/03 08:20:30;;;;;;;;;;;24.50;99.90;;;;;;5042519;28;19974;-65
2023/03/03 08:22:56;;;;;;;;;;;24.30;99.90;;;;;;5042940;28;20365;-67
2023/03/03 08:25:23;;;;;;;;;;;24.20;99.90;;;;;;5043137;28;19920;-69
2023/03/03 08:27:50;;;;;;;;;;;24.10;99.90;;;;;;5042891;28;20011;-66
2023/03/03 08:30:17;;;;;;;;;;;24.00;99.90;;;;;;5043116;28;20395;-72
2023/03/03 08:32:43;;;;;;;;;;;23.90;99.90;;;;;;5042767;28;19967;-70
2023/03/03 08:35:10;;;;;;;;;;;23.70;99.90;;;;;;5041772;28;19917;-72
2023/03/03 08:37:37;;;;;;;;;;;23.70;99.90;;;;;;5042907;28;19956;-71
2023/03/03 08:40:04;;;;;;;;;;;23.60;99.90;;;;;;5075042;28;19916;-71
2023/03/03 08:42:30;;;;;;;;;;;23.50;99.90;;;;;;5038599;28;19990;-71
2023/03/03 08:44:57;;;;;;;;;;;23.50;99.90;;;;;;5042445;28;20054;-65
2023/03/03 08:47:24;;;;;;;;;;;23.30;99.90;;;;;;5029624;28;19913;-67
2023/03/03 08:49:50;;;;;;;;;;;23.30;99.90;;;;;;5040177;28;19931;-66
2023/03/03 08:52:17;;;;;;;;;;;23.20;99.90;;;;;;5038564;28;19912;-66
2023/03/03 08:54:43;;;;;;;;;;;23.00;99.90;;;;;;5040647;28;19919;-68
2023/03/03 08:57:10;;;;;;;;;;;22.90;99.90;;;;;;5033440;28;19924;-67
2023/03/03 08:59:37;;;;;;;;;;;22.80;99.90;;;;;;5025414;28;19909;-67
2023/03/03 09:02:05;;;;;;;;;;;22.70;99.90;;;;;;5038142;28;20435;-70
2023/03/03 09:04:31;;;;;;;;;;;22.70;99.90;;;;;;5036160;28;20041;-67
2023/03/03 09:06:58;;;;;;;;;;;22.60;99.90;;;;;;5053963;28;19916;-68
2023/03/03 09:09:25;;;;;;;;;;;22.60;99.90;;;;;;5021687;28;19909;-67
2023/03/03 09:11:57;;;;;;;;;;;22.60;99.90;;;;;;5039380;28;19913;-67
2023/03/03 09:14:27;;;;;;;;;;;22.50;99.90;;;;;;5041447;28;20604;-70
2023/03/03 09:16:55;;;;;;;;;;;22.40;99.90;;;;;;5038134;28;20000;-68
2023/03/03 09:19:26;;;;;;;;;;;22.30;99.90;;;;;;5022023;28;19970;-67
2023/03/03 09:21:55;;;;;;;;;;;22.20;99.90;;;;;;5031973;28;20419;-67
2023/03/03 09:24:31;;;;;;;;;;;22.20;99.90;;;;;;5030049;28;19917;-67
2023/03/03 09:26:58;;;;;;;;;;;22.20;99.90;;;;;;5036097;28;19912;-66
2023/03/03 09:29:27;;;;;;;;;;;22.20;99.90;;;;;;5032119;28;19967;-66
2023/03/03 09:31:56;;;;;;;;;;;22.10;99.90;;;;;;5032089;28;19916;-67
2023/03/03 09:34:24;;;;;;;;;;;22.00;99.90;;;;;;5043094;28;20276;-68
2023/03/03 09:36:52;;;;;;;;;;;21.90;99.90;;;;;;5042026;28;19913;-75
2023/03/03 09:39:20;;;;;;;;;;;22.00;99.90;;;;;;5034780;28;19924;-66
2023/03/03 09:41:50;;;;;;;;;;;21.90;99.90;;;;;;5031195;28;19920;-67
2023/03/03 09:44:22;;;;;;;;;;;21.80;99.90;;;;;;5036715;28;20251;-67
2023/03/03 09:47:08;;;;;;;;;;;21.80;99.90;;;;;;5040773;28;20003;-68
2023/03/03 09:49:37;;;;;;;;;;;21.80;99.90;;;;;;5029738;28;20365;-68
2023/03/03 09:52:07;;;;;;;;;;;21.80;99.90;;;;;;5044218;28;20431;-69
2023/03/03 09:54:42;;;;;;;;;;;21.90;99.90;;;;;;5028929;28;19932;-68
2023/03/03 09:57:15;;;;;;;;;;;21.80;99.90;;;;;;5042395;28;19924;-65
2023/03/03 10:00:00;;;;;;;;;;;21.80;99.90;;;;;;5036341;28;19913;-65
2023/03/03 10:02:43;;;;;;;;;;;21.80;99.90;;;;;;5038144;28;19917;-69
2023/03/03 10:05:13;;;;;;;;;;;21.80;99.90;;;;;;5036882;28;19921;-69
2023/03/03 10:07:54;;;;;;;;;;;21.70;99.90;;;;;;5049029;28;19916;-70
2023/03/03 10:10:21;;;;;;;;;;;21.80;99.90;;;;;;5036410;28;19967;-79
2023/03/03 10:12:57;;;;;;;;;;;21.80;99.90;;;;;;5049102;28;19913;-73
2023/03/03 10:15:32;;;;;;;;;;;21.80;99.90;;;;;;5040269;28;19989;-70
2023/03/03 10:18:03;;;;;;;;;;;21.80;99.90;;;;;;5045529;28;19920;-62
2023/03/03 10:20:30;;;;;;;;;;;21.70;99.90;;;;;;5045220;28;20430;-65
2023/03/03 10:23:14;;;;;;;;;;;21.80;99.90;;;;;;5046211;28;19920;-64
2023/03/03 10:25:44;;;;;;;;;;;21.80;99.90;;;;;;5043816;28;19925;-68
2023/03/03 10:28:29;;;;;;;;;;;21.90;99.90;;;;;;5040318;28;19924;-67
2023/03/03 10:31:10;;;;;;;;;;;21.90;99.90;;;;;;5041282;28;19913;-71
2023/03/03 10:33:40;;;;;;;;;;;21.90;99.90;;;;;;5043377;28;19974;-65
2023/03/03 10:36:13;;;;;;;;;;;21.80;99.90;;;;;;5044057;28;19924;-69
2023/03/03 10:38:40;;;;;;;;;;;21.80;99.90;;;;;;5044234;28;19920;-65
2023/03/03 10:41:26;;;;;;;;;;;21.80;99.90;;;;;;5045300;28;19959;-66
2023/03/03 10:44:04;;;;;;;;;;;21.80;99.90;;;;;;5044882;28;19921;-65
2023/03/03 10:46:40;;;;;;;;;;;21.70;99.90;;;;;;5041751;28;19916;-66
2023/03/03 10:49:13;;;;;;;;;;;21.80;99.90;;;;;;5043935;28;19967;-67
2023/03/03 10:52:00;;;;;;;;;;;21.90;99.90;;;;;;5042711;28;20782;-65
2023/03/03 10:54:29;;;;;;;;;;;21.90;99.90;;;;;;5042551;28;19914;-65
2023/03/03 10:57:11;;;;;;;;;;;21.90;99.90;;;;;;5043005;28;20005;-65
2023/03/03 11:00:04;;;;;;;;;;;21.80;99.90;;;;;;5043714;28;19991;-66
2023/03/03 11:02:49;;;;;;;;;;;21.80;99.90;;;;;;5039592;28;19917;-66
2023/03/03 11:05:18;;;;;;;;;;;21.80;99.90;;;;;;5075446;28;19917;-65
2023/03/03 11:07:51;;;;;;;;;;;21.90;99.90;;;;;;5043023;28;19912;-65
2023/03/03 11:10:32;;;;;;;;;;;22.00;99.90;;;;;;5037251;28;19925;-64
2023/03/03 11:13:09;;;;;;;;;;;21.90;99.90;;;;;;5039742;28;19912;-66
2023/03/03 11:15:57;;;;;;;;;;;21.90;99.90;;;;;;5037037;28;19919;-68
2023/03/03 11:18:43;;;;;;;;;;;21.90;99.90;;;;;;5024103;28;20003;-63
2023/03/03 11:21:13;;;;;;;;;;;22.00;99.90;;;;;;5050828;28;19924;-64
2023/03/03 11:23:43;;;;;;;;;;;22.00;99.90;;;;;;5044460;28;19912;-63
2023/03/03 11:26:22;;;;;;;;;;;22.00;99.90;;;;;;5043634;28;19962;-66
2023/03/03 11:28:54;;;;;;;;;;;22.10;99.90;;;;;;5041752;28;20179;-63
2023/03/03 11:31:32;;;;;;;;;;;22.10;99.90;;;;;;5041960;28;20381;-65
2023/03/03 11:34:13;;;;;;;;;;;22.00;99.90;;;;;;5044649;28;20281;-64
2023/03/03 11:36:45;;;;;;;;;;;22.00;99.90;;;;;;5043429;28;19913;-67
2023/03/03 11:39:13;;;;;;;;;;;22.10;99.90;;;;;;5042603;28;19920;-67
2023/03/03 11:41:59;;;;;;;;;;;22.10;99.90;;;;;;5032149;28;19959;-66
2023/03/03 11:44:38;;;;;;;;;;;22.10;99.90;;;;;;5025319;28;19928;-63
2023/03/03 11:47:17;;;;;;;;;;;22.10;99.90;;;;;;5025451;28;19909;-63
2023/03/03 11:50:06;;;;;;;;;;;22.00;99.90;;;;;;5025607;28;19947;-66
2023/03/03 11:52:33;;;;;;;;;;;22.10;99.90;;;;;;5043901;28;19919;-64
2023/03/03 11:55:03;;;;;;;;;;;22.10;99.90;;;;;;5044326;28;20270;-63
2023/03/03 11:57:39;;;;;;;;;;;22.10;99.90;;;;;;5045330;28;19913;-63
2023/03/03 12:00:11;;;;;;;;;;;22.10;99.90;;;;;;5045385;28;19917;-67
2023/03/03 12:02:56;;;;;;;;;;;22.10;99.90;;;;;;5045028;28;19909;-62
2023/03/03 12:05:23;;;;;;;;;;;22.00;99.90;;;;;;5044707;28;19982;-65
2023/03/03 12:07:49;;;;;;;;;;;22.00;99.90;;;;;;5045231;28;20310;-64
2023/03/03 12:10:28;;;;;;;;;;;21.90;99.90;;;;;;5044873;28;19923;-63
2023/03/03 12:13:21;;;;;;;;;;;21.90;99.90;;;;;;5044157;28;20062;-68
2023/03/03 12:16:10;;;;;;;;;;;21.80;99.90;;;;;;5045569;28;19920;-68
2023/03/03 12:18:46;;;;;;;;;;;21.80;99.90;;;;;;5041238;28;20278;-64
2023/03/03 12:21:13;;;;;;;;;;;21.60;99.90;;;;;;5043500;28;20485;-65
2023/03/03 12:23:39;;;;;;;;;;;21.70;99.90;;;;;;5044469;28;20011;-65
2023/03/03 12:26:12;;;;;;;;;;;21.60;99.90;;;;;;5044716;28;19916;-66
2023/03/03 12:28:58;;;;;;;;;;;21.60;99.90;;;;;;5044161;28;19909;-65
2023/03/03 12:31:41;;;;;;;;;;;21.60;99.90;;;;;;5044590;28;20358;-64
2023/03/03 12:34:18;;;;;;;;;;;21.60;99.90;;;;;;5043800;28;19966;-66
2023/03/03 12:36:51;;;;;;;;;;;21.60;99.90;;;;;;5043153;28;20011;-68
2023/03/03 12:39:27;;;;;;;;;;;21.70;99.90;;;;;;5044036;28;19928;-68
2023/03/03 12:42:00;;;;;;;;;;;21.60;99.90;;;;;;5044270;28;19916;-68
2023/03/03 12:44:27;;;;;;;;;;;21.60;99.90;;;;;;5043932;28;19917;-67
2023/03/03 12:47:19;;;;;;;;;;;21.60;99.90;;;;;;5044397;28;20004;-63
2023/03/03 12:49:52;;;;;;;;;;;21.60;99.90;;;;;;5050269;28;19909;-68
2023/03/03 12:52:34;;;;;;;;;;;21.60;99.90;;;;;;5043805;28;19908;-67
2023/03/03 12:55:07;;;;;;;;;;;21.70;99.90;;;;;;5044410;28;19944;-63
2023/03/03 12:57:33;;;;;;;;;;;21.60;99.90;;;;;;5042762;28;19912;-66
2023/03/03 13:00:00;;;;;;;;;;;21.50;99.90;;;;;;5044447;28;20132;-65
2023/03/03 13:02:38;;;;;;;;;;;21.60;99.90;;;;;;5043725;28;20328;-68
2023/03/03 13:05:20;;;;;;;;;;;21.60;99.90;;;;;;5044098;28;20012;-68
2023/03/03 13:07:50;;;;;;;;;;;21.60;99.90;;;;;;5032229;28;20447;-66
2023/03/03 13:10:35;;;;;;;;;;;21.50;99.90;;;;;;5044017;28;19909;-67
2023/03/03 13:13:12;;;;;;;;;;;21.50;99.90;;;;;;5044290;28;20420;-66
2023/03/03 13:15:53;;;;;;;;;;;21.50;99.90;;;;;;5043151;28;19921;-64
2023/03/03 13:18:32;;;;;;;;;;;21.40;99.90;;;;;;5043783;28;20005;-65
2023/03/03 13:21:05;;;;;;;;;;;21.30;99.90;;;;;;5023980;28;20007;-65
2023/03/03 13:23:40;;;;;;;;;;;21.40;99.90;;;;;;5024792;28;20002;-64
2023/03/03 13:26:16;;;;;;;;;;;21.30;99.90;;;;;;5043284;28;19924;-66
2023/03/03 13:29:02;;;;;;;;;;;21.30;99.90;;;;;;5043398;28;20258;-62
2023/03/03 13:31:49;;;;;;;;;;;21.30;99.90;;;;;;5051866;28;19936;-63
2023/03/03 13:34:24;;;;;;;;;;;21.30;99.90;;;;;;5042473;28;20266;-65
2023/03/03 13:37:11;;;;;;;;;;;21.20;99.90;;;;;;5043765;28;20061;-63
2023/03/03 13:39:40;;;;;;;;;;;21.20;99.90;;;;;;5051579;28;19921;-64
2023/03/03 13:42:27;;;;;;;;;;;21.20;99.90;;;;;;5043917;28;19908;-63
2023/03/03 13:44:56;;;;;;;;;;;21.10;99.90;;;;;;5026268;28;19921;-65
2023/03/03 13:47:41;;;;;;;;;;;21.10;99.90;;;;;;5023433;28;19921;-65
2023/03/03 13:50:10;;;;;;;;;;;21.00;99.90;;;;;;5023294;28;19909;-69
2023/03/03 13:52:44;;;;;;;;;;;21.00;99.90;;;;;;5036626;28;19916;-64
2023/03/03 13:55:20;;;;;;;;;;;21.00;99.90;;;;;;5043048;28;20258;-64
2023/03/03 13:57:49;;;;;;;;;;;20.90;99.90;;;;;;5042496;28;19959;-63
2023/03/03 14:00:36;;;;;;;;;;;21.00;99.90;;;;;;5043459;28;19944;-64
2023/03/03 14:03:17;;;;;;;;;;;21.00;99.90;;;;;;5041759;28;20010;-68
2023/03/03 14:05:44;;;;;;;;;;;20.90;99.90;;;;;;5022177;28;19939;-65
2023/03/03 14:08:28;;;;;;;;;;;20.90;99.90;;;;;;5023284;28;19921;-64
2023/03/03 14:11:07;;;;;;;;;;;20.90;99.90;;;;;;5023261;28;19909;-64
2023/03/03 14:13:42;;;;;;;;;;;20.90;99.90;;;;;;5028233;28;20365;-64
2023/03/03 14:16:20;;;;;;;;;;;20.90;99.90;;;;;;5042922;28;19956;-62
2023/03/03 14:19:09;;;;;;;;;;;20.90;99.90;;;;;;5042413;28;20668;-64
2023/03/03 14:21:56;;;;;;;;;;;21.00;99.90;;;;;;5022930;28;19913;-64
2023/03/03 14:24:25;;;;;;;;;;;21.00;99.90;;;;;;5031517;28;20393;-63
2023/03/03 14:26:52;;;;;;;;;;;21.00;99.90;;;;;;5037979;28;19916;-63
2023/03/03 14:29:28;;;;;;;;;;;21.00;99.90;;;;;;5042476;28;19920;-63
2023/03/03 14:32:01;;;;;;;;;;;21.00;99.90;;;;;;5043194;28;19909;-63
2023/03/03 14:34:28;;;;;;;;;;;20.90;99.90;;;;;;5043282;28;20328;-65
2023/03/03 14:37:00;;;;;;;;;;;21.00;99.90;;;;;;5043490;28;19916;-68